createdAt,value
2023-03-06T00:00:27.060Z,13.27
2023-03-06T00:01:28.568Z,13.98
2023-03-06T00:02:29.999Z,14.77
2023-03-06T00:03:33.530Z,13.75
2023-03-06T00:04:35.069Z,15.57
2023-03-06T00:05:36.560Z,13.93
2023-03-06T00:06:38.051Z,15.57
2023-03-06T00:07:39.905Z,14.82
2023-03-06T00:08:41.304Z,14.35
2023-03-06T00:09:42.784Z,13.95
2023-03-06T00:10:44.554Z,14.13
2023-03-06T00:11:46.110Z,14.73
2023-03-06T00:12:47.658Z,12.88
2023-03-06T00:13:49.196Z,13.65
2023-03-06T00:14:50.720Z,13.77
2023-03-06T00:15:52.749Z,15.20
2023-03-06T00:16:55.978Z,13.98
2023-03-06T00:17:57.809Z,13.68
2023-03-06T00:18:59.286Z,14.40
2023-03-06T00:20:00.768Z,16.80
2023-03-06T00:21:02.236Z,13.68
2023-03-06T00:22:03.718Z,13.95
2023-03-06T00:23:05.248Z,14.18
2023-03-06T00:24:06.788Z,18.98
2023-03-06T00:25:13.656Z,14.63
2023-03-06T00:26:15.065Z,12.57
2023-03-06T00:27:16.538Z,14.18
2023-03-06T00:28:18.008Z,14.80
2023-03-06T00:29:19.527Z,16.20
2023-03-06T00:30:23.997Z,14.02
2023-03-06T00:31:25.483Z,13.80
2023-03-06T00:32:28.511Z,15.45
2023-03-06T00:33:30.558Z,14.00
2023-03-06T00:34:32.039Z,16.25
2023-03-06T00:35:33.816Z,13.98
2023-03-06T00:36:35.253Z,15.77
2023-03-06T00:37:36.797Z,13.48
2023-03-06T00:38:38.315Z,14.80
2023-03-06T00:39:39.756Z,15.23
2023-03-06T00:40:41.296Z,15.32
2023-03-06T00:41:43.451Z,13.88
2023-03-06T00:42:46.552Z,11.98
2023-03-06T00:43:48.175Z,15.45
2023-03-06T00:44:49.611Z,13.35
2023-03-06T00:45:51.422Z,16.65
2023-03-06T00:46:52.971Z,13.00
2023-03-06T00:47:54.561Z,17.33
2023-03-06T00:48:56.114Z,15.85
2023-03-06T00:49:57.601Z,14.15
2023-03-06T00:50:59.070Z,13.95
2023-03-06T00:52:00.631Z,17.88
2023-03-06T00:53:02.176Z,16.77
2023-03-06T00:54:03.599Z,14.95
2023-03-06T00:55:06.154Z,16.58
2023-03-06T00:56:09.165Z,14.77
2023-03-06T00:58:12.438Z,17.00
2023-03-06T00:59:13.982Z,14.80
2023-03-06T01:00:15.793Z,14.38
2023-03-06T01:01:17.427Z,15.32
2023-03-06T01:02:19.234Z,14.82
2023-03-06T01:04:34.053Z,17.33
2023-03-06T01:05:36.912Z,15.20
2023-03-06T01:06:38.564Z,16.10
2023-03-06T01:07:40.072Z,15.05
2023-03-06T01:08:41.525Z,14.70
2023-03-06T01:09:43.095Z,15.93
2023-03-06T01:10:44.949Z,16.40
2023-03-06T01:11:46.715Z,14.25
2023-03-06T01:12:48.280Z,14.18
2023-03-06T01:13:49.861Z,14.40
2023-03-06T01:14:51.484Z,16.42
2023-03-06T01:15:53.210Z,14.48
2023-03-06T01:16:54.761Z,15.30
2023-03-06T01:17:56.474Z,15.35
2023-03-06T01:18:58.325Z,13.88
2023-03-06T01:19:59.773Z,15.23
2023-03-06T01:21:01.540Z,14.95
2023-03-06T01:22:02.993Z,13.88
2023-03-06T01:23:04.547Z,13.93
2023-03-06T01:24:06.273Z,15.43
2023-03-06T01:25:08.696Z,12.70
2023-03-06T01:26:10.704Z,15.07
2023-03-06T01:27:12.448Z,15.10
2023-03-06T01:28:13.879Z,15.88
2023-03-06T01:29:15.541Z,13.90
2023-03-06T01:30:17.466Z,16.33
2023-03-06T01:31:19.191Z,15.43
2023-03-06T01:32:21.601Z,13.45
2023-03-06T01:33:23.246Z,15.32
2023-03-06T01:34:25.914Z,16.25
2023-03-06T01:35:27.436Z,13.48
2023-03-06T01:36:29.004Z,14.02
2023-03-06T01:37:30.535Z,13.52
2023-03-06T01:38:32.057Z,14.10
2023-03-06T01:39:33.824Z,14.15
2023-03-06T01:40:36.731Z,13.95
2023-03-06T01:41:38.297Z,13.02
2023-03-06T01:42:40.542Z,14.65
2023-03-06T01:43:45.556Z,14.02
2023-03-06T01:45:08.157Z,12.55
2023-03-06T01:46:28.136Z,17.08
2023-03-06T01:47:29.586Z,15.27
2023-03-06T01:48:31.214Z,15.15
2023-03-06T01:49:37.220Z,12.80
2023-03-06T01:50:38.738Z,13.88
2023-03-06T01:51:47.868Z,15.02
2023-03-06T01:52:53.578Z,17.08
2023-03-06T01:53:59.108Z,12.68
2023-03-06T01:55:11.065Z,17.55
2023-03-06T01:56:14.335Z,16.40
2023-03-06T01:57:20.867Z,13.32
2023-03-06T01:58:22.628Z,13.88
2023-03-06T01:59:27.193Z,13.73
2023-03-06T02:00:30.014Z,13.93
2023-03-06T02:01:33.295Z,15.25
2023-03-06T02:02:35.394Z,15.30
2023-03-06T02:03:37.634Z,15.70
2023-03-06T02:04:42.410Z,12.88
2023-03-06T02:05:44.786Z,14.48
2023-03-06T02:06:47.750Z,14.90
2023-03-06T02:07:50.631Z,15.20
2023-03-06T02:08:53.314Z,14.68
2023-03-06T02:09:54.780Z,13.88
2023-03-06T02:11:09.517Z,14.32
2023-03-06T02:12:14.565Z,16.17
2023-03-06T02:13:16.151Z,14.43
2023-03-06T02:14:18.651Z,13.48
2023-03-06T02:15:23.371Z,14.18
2023-03-06T02:16:28.665Z,15.57
2023-03-06T02:17:30.421Z,15.40
2023-03-06T02:18:33.971Z,15.70
2023-03-06T02:19:59.815Z,17.17
2023-03-06T02:21:06.184Z,16.83
2023-03-06T02:22:07.855Z,14.15
2023-03-06T02:23:18.213Z,16.48
2023-03-06T02:24:33.429Z,17.13
2023-03-06T02:25:45.018Z,18.75
2023-03-06T02:26:47.587Z,16.85
2023-03-06T02:27:49.710Z,15.20
2023-03-06T02:28:51.290Z,15.18
2023-03-06T02:29:52.746Z,15.48
2023-03-06T02:30:56.085Z,16.63
2023-03-06T02:31:57.970Z,17.75
2023-03-06T02:32:59.402Z,16.42
2023-03-06T02:34:15.882Z,15.88
2023-03-06T02:35:23.669Z,14.13
2023-03-06T02:36:25.197Z,15.00
2023-03-06T02:37:28.538Z,15.95
2023-03-06T02:38:35.082Z,14.55
2023-03-06T02:39:43.217Z,17.55
2023-03-06T02:40:48.477Z,15.52
2023-03-06T02:41:49.899Z,16.17
2023-03-06T02:42:57.801Z,18.33
2023-03-06T02:43:59.250Z,16.95
2023-03-06T02:45:03.595Z,15.52
2023-03-06T02:46:05.804Z,16.70
2023-03-06T02:47:07.774Z,15.15
2023-03-06T02:48:09.349Z,19.30
2023-03-06T02:49:10.798Z,17.33
2023-03-06T02:50:12.558Z,15.88
2023-03-06T02:51:14.281Z,18.10
2023-03-06T02:52:15.686Z,16.75
2023-03-06T02:53:18.929Z,17.77
2023-03-06T02:54:20.363Z,16.67
2023-03-06T02:55:22.195Z,15.25
2023-03-06T02:56:23.723Z,17.40
2023-03-06T02:57:25.237Z,18.75
2023-03-06T02:58:26.781Z,18.90
2023-03-06T02:59:28.258Z,17.80
2023-03-06T03:00:30.832Z,17.13
2023-03-06T03:01:32.340Z,16.30
2023-03-06T03:02:33.828Z,18.88
2023-03-06T03:03:35.286Z,18.38
2023-03-06T03:04:36.859Z,15.93
2023-03-06T03:05:38.646Z,17.55
2023-03-06T03:06:40.085Z,18.17
2023-03-06T03:07:41.803Z,15.73
2023-03-06T03:08:45.390Z,17.27
2023-03-06T03:09:46.814Z,16.15
2023-03-06T03:10:48.219Z,16.08
2023-03-06T03:11:49.625Z,16.83
2023-03-06T03:12:51.693Z,17.33
2023-03-06T03:13:53.196Z,16.92
2023-03-06T03:14:56.331Z,20.15
2023-03-06T03:16:15.960Z,17.55
2023-03-06T03:17:17.524Z,18.50
2023-03-06T03:18:18.952Z,16.88
2023-03-06T03:19:20.474Z,15.57
2023-03-06T03:20:22.781Z,16.40
2023-03-06T03:21:24.430Z,21.67
2023-03-06T03:22:25.933Z,17.27
2023-03-06T03:23:27.776Z,17.23
2023-03-06T03:24:29.262Z,17.23
2023-03-06T03:25:30.728Z,14.90
2023-03-06T03:26:32.262Z,18.83
2023-03-06T03:27:33.687Z,17.08
2023-03-06T03:28:35.355Z,16.60
2023-03-06T03:29:37.460Z,16.48
2023-03-06T03:30:40.565Z,16.90
2023-03-06T03:31:42.087Z,17.45
2023-03-06T03:32:43.617Z,20.08
2023-03-06T03:33:45.161Z,17.13
2023-03-06T03:34:46.666Z,18.42
2023-03-06T03:35:56.975Z,18.55
2023-03-06T03:36:58.487Z,20.40
2023-03-06T03:38:00.240Z,17.45
2023-03-06T03:39:01.840Z,19.65
2023-03-06T03:40:05.068Z,15.65
2023-03-06T03:41:06.540Z,51.80
2023-03-06T03:42:08.153Z,92.18
2023-03-06T03:43:09.610Z,45.15
2023-03-06T03:44:11.417Z,29.15
2023-03-06T03:45:13.005Z,20.70
2023-03-06T03:46:14.456Z,21.83
2023-03-06T03:47:15.897Z,18.17
2023-03-06T03:48:17.342Z,18.95
2023-03-06T03:49:19.013Z,18.88
2023-03-06T03:50:20.518Z,18.42
2023-03-06T03:51:22.093Z,19.80
2023-03-06T03:52:23.645Z,19.40
2023-03-06T03:53:25.114Z,20.30
2023-03-06T03:54:26.556Z,17.60
2023-03-06T03:55:28.636Z,16.75
2023-03-06T03:56:30.038Z,18.17
2023-03-06T03:57:31.621Z,20.27
2023-03-06T03:58:33.097Z,16.02
2023-03-06T03:59:34.592Z,17.80
2023-03-06T04:00:36.069Z,19.05
2023-03-06T04:01:39.673Z,18.73
2023-03-06T04:02:41.997Z,18.02
2023-03-06T04:03:43.893Z,16.55
2023-03-06T04:04:45.410Z,16.95
2023-03-06T04:05:46.921Z,19.38
2023-03-06T04:06:48.772Z,18.13
2023-03-06T04:07:50.186Z,17.50
2023-03-06T04:08:51.674Z,19.20
2023-03-06T04:09:53.402Z,20.73
2023-03-06T04:10:55.305Z,18.67
2023-03-06T04:11:56.922Z,17.17
2023-03-06T04:12:58.510Z,17.88
2023-03-06T04:14:00.147Z,16.88
2023-03-06T04:15:01.837Z,21.27
2023-03-06T04:16:03.549Z,18.33
2023-03-06T04:17:05.326Z,19.90
2023-03-06T04:18:06.991Z,17.33
2023-03-06T04:19:08.800Z,18.83
2023-03-06T04:20:11.290Z,18.10
2023-03-06T04:21:12.896Z,16.73
2023-03-06T04:22:14.440Z,17.67
2023-03-06T04:23:17.343Z,17.20
2023-03-06T04:24:18.852Z,19.70
2023-03-06T04:25:20.363Z,20.50
2023-03-06T04:26:21.790Z,19.80
2023-03-06T04:27:23.450Z,18.17
2023-03-06T04:28:25.468Z,19.10
2023-03-06T04:29:27.008Z,17.75
2023-03-06T04:30:28.494Z,17.45
2023-03-06T04:31:30.159Z,19.50
2023-03-06T04:32:31.727Z,17.13
2023-03-06T04:33:34.591Z,18.50
2023-03-06T04:34:36.365Z,21.05
2023-03-06T04:35:38.005Z,17.38
2023-03-06T04:36:41.460Z,17.95
2023-03-06T04:37:43.117Z,19.40
2023-03-06T04:38:44.781Z,18.85
2023-03-06T04:39:46.567Z,18.45
2023-03-06T04:40:49.659Z,18.70
2023-03-06T04:41:51.518Z,19.92
2023-03-06T04:42:54.311Z,22.58
2023-03-06T04:43:55.910Z,18.00
2023-03-06T04:44:57.355Z,17.83
2023-03-06T04:45:59.017Z,17.40
2023-03-06T04:47:00.745Z,19.45
2023-03-06T04:48:02.618Z,18.30
2023-03-06T04:49:06.726Z,19.77
2023-03-06T04:50:10.244Z,17.27
2023-03-06T04:51:13.159Z,18.85
2023-03-06T04:52:14.710Z,19.15
2023-03-06T04:53:16.970Z,19.65
2023-03-06T04:54:19.112Z,23.52
2023-03-06T04:55:20.718Z,17.42
2023-03-06T04:56:22.298Z,19.02
2023-03-06T04:57:24.044Z,17.90
2023-03-06T04:58:26.574Z,20.65
2023-03-06T04:59:28.213Z,19.25
2023-03-06T05:00:31.549Z,18.70
2023-03-06T05:01:33.163Z,19.98
2023-03-06T05:02:34.946Z,19.38
2023-03-06T05:03:36.524Z,17.73
2023-03-06T05:04:37.970Z,19.35
2023-03-06T05:05:39.423Z,21.05
2023-03-06T05:06:40.946Z,19.67
2023-03-06T05:07:42.615Z,18.13
2023-03-06T05:08:44.408Z,19.27
2023-03-06T05:09:45.918Z,19.48
2023-03-06T05:10:55.035Z,20.40
2023-03-06T05:11:56.517Z,19.75
2023-03-06T05:12:58.023Z,18.13
2023-03-06T05:13:59.639Z,19.00
2023-03-06T05:15:01.250Z,22.30
2023-03-06T05:16:04.861Z,19.70
2023-03-06T05:17:06.363Z,21.60
2023-03-06T05:18:07.858Z,18.83
2023-03-06T05:19:09.321Z,21.65
2023-03-06T05:20:12.493Z,21.05
2023-03-06T05:21:13.922Z,20.45
2023-03-06T05:22:15.395Z,20.23
2023-03-06T05:23:16.867Z,21.17
2023-03-06T05:24:18.413Z,19.27
2023-03-06T05:25:19.880Z,21.77
2023-03-06T05:26:21.332Z,20.52
2023-03-06T05:27:22.844Z,18.83
2023-03-06T05:28:26.041Z,20.63
2023-03-06T05:29:27.933Z,20.98
2023-03-06T05:30:29.746Z,21.92
2023-03-06T05:31:31.248Z,21.88
2023-03-06T05:32:35.470Z,21.65
2023-03-06T05:33:37.738Z,18.38
2023-03-06T05:34:40.058Z,20.38
2023-03-06T05:35:46.173Z,18.38
2023-03-06T05:36:47.815Z,21.45
2023-03-06T05:37:49.451Z,21.33
2023-03-06T05:38:51.181Z,20.63
2023-03-06T05:39:52.663Z,20.20
2023-03-06T05:40:54.271Z,21.90
2023-03-06T05:41:55.777Z,18.13
2023-03-06T05:42:57.564Z,18.83
2023-03-06T05:43:59.255Z,20.55
2023-03-06T05:45:02.427Z,21.63
2023-03-06T05:46:06.467Z,23.52
2023-03-06T05:47:08.902Z,20.50
2023-03-06T05:48:13.027Z,20.48
2023-03-06T05:49:14.745Z,17.10
2023-03-06T05:50:16.468Z,21.15
2023-03-06T05:51:18.039Z,23.17
2023-03-06T05:52:19.639Z,20.95
2023-03-06T05:53:21.133Z,21.15
2023-03-06T05:54:24.406Z,23.42
2023-03-06T05:55:25.864Z,23.95
2023-03-06T05:56:27.313Z,19.80
2023-03-06T05:57:29.970Z,18.73
2023-03-06T05:58:32.865Z,20.80
2023-03-06T05:59:34.420Z,19.52
2023-03-06T06:00:35.887Z,21.10
2023-03-06T06:01:37.562Z,19.75
2023-03-06T06:02:42.099Z,21.77
2023-03-06T06:03:44.541Z,22.52
2023-03-06T06:04:46.085Z,23.15
2023-03-06T06:05:47.504Z,21.83
2023-03-06T06:06:57.266Z,18.95
2023-03-06T06:07:58.734Z,19.75
2023-03-06T06:09:00.318Z,21.63
2023-03-06T06:10:04.554Z,21.42
2023-03-06T06:11:10.627Z,22.25
2023-03-06T06:12:13.833Z,21.02
2023-03-06T06:13:15.376Z,22.67
2023-03-06T06:14:16.939Z,20.73
2023-03-06T06:15:21.206Z,23.73
2023-03-06T06:16:22.710Z,23.63
2023-03-06T06:17:24.634Z,23.15
2023-03-06T06:18:26.204Z,22.27
2023-03-06T06:19:31.563Z,21.45
2023-03-06T06:20:33.145Z,21.13
2023-03-06T06:21:34.772Z,21.98
2023-03-06T06:22:38.080Z,21.52
2023-03-06T06:23:39.528Z,24.20
2023-03-06T06:24:41.051Z,23.20
2023-03-06T06:25:42.489Z,23.10
2023-03-06T06:26:44.066Z,23.75
2023-03-06T06:27:45.588Z,21.15
2023-03-06T06:28:47.340Z,21.63
2023-03-06T06:29:51.470Z,22.95
2023-03-06T06:30:53.025Z,20.80
2023-03-06T06:31:55.482Z,21.20
2023-03-06T06:32:57.305Z,22.92
2023-03-06T06:34:01.569Z,23.63
2023-03-06T06:35:03.860Z,20.65
2023-03-06T06:36:05.951Z,20.77
2023-03-06T06:37:07.469Z,22.83
2023-03-06T06:38:09.135Z,23.13
2023-03-06T06:39:13.919Z,22.90
2023-03-06T06:40:15.512Z,21.55
2023-03-06T06:43:41.953Z,26.15
2023-03-06T06:44:43.836Z,24.70
2023-03-06T06:45:45.521Z,23.58
2023-03-06T06:47:21.251Z,21.88
2023-03-06T06:48:12.034Z,23.42
2023-03-06T06:49:13.846Z,24.33
2023-03-06T06:50:15.749Z,26.25
2023-03-06T06:51:17.810Z,24.25
2023-03-06T06:52:19.943Z,22.05
2023-03-06T06:53:21.569Z,24.90
2023-03-06T06:54:25.534Z,22.40
2023-03-06T06:55:27.559Z,25.33
2023-03-06T06:56:29.017Z,24.10
2023-03-06T06:57:30.549Z,23.80
2023-03-06T06:58:31.980Z,23.25
2023-03-06T06:59:33.602Z,26.95
2023-03-06T07:00:35.013Z,23.95
2023-03-06T07:01:36.648Z,22.60
2023-03-06T07:02:38.615Z,22.70
2023-03-06T07:03:40.870Z,23.27
2023-03-06T07:05:00.198Z,25.77
2023-03-06T07:06:05.577Z,26.55
2023-03-06T07:07:07.161Z,21.75
2023-03-06T07:08:08.844Z,23.50
2023-03-06T07:09:10.539Z,21.58
2023-03-06T07:10:14.687Z,22.38
2023-03-06T07:11:18.432Z,22.88
2023-03-06T07:12:20.072Z,25.13
2023-03-06T07:13:21.688Z,26.38
2023-03-06T07:14:23.121Z,24.88
2023-03-06T07:15:27.041Z,26.45
2023-03-06T07:16:28.544Z,25.80
2023-03-06T07:17:30.318Z,24.58
2023-03-06T07:18:31.864Z,22.20
2023-03-06T07:19:33.464Z,23.95
2023-03-06T07:20:36.031Z,24.17
2023-03-06T07:21:37.529Z,24.27
2023-03-06T07:22:50.306Z,25.83
2023-03-06T07:23:52.647Z,26.52
2023-03-06T07:24:54.108Z,24.60
2023-03-06T07:25:56.960Z,26.75
2023-03-06T07:26:58.526Z,23.80
2023-03-06T07:28:00.165Z,26.40
2023-03-06T07:29:02.427Z,24.98
2023-03-06T07:30:05.174Z,23.92
2023-03-06T07:31:11.536Z,25.33
2023-03-06T07:32:13.171Z,22.88
2023-03-06T07:33:15.465Z,26.02
2023-03-06T07:34:16.984Z,21.35
2023-03-06T07:35:20.462Z,24.50
2023-03-06T07:36:23.396Z,24.80
2023-03-06T07:37:25.094Z,26.35
2023-03-06T07:38:26.654Z,23.75
2023-03-06T07:39:30.078Z,25.02
2023-03-06T07:40:31.652Z,23.88
2023-03-06T07:41:33.130Z,29.67
2023-03-06T07:42:35.004Z,26.58
2023-03-06T07:43:36.497Z,25.88
2023-03-06T07:44:38.104Z,26.88
2023-03-06T07:45:39.811Z,24.98
2023-03-06T07:46:41.532Z,26.90
2023-03-06T07:47:43.188Z,23.85
2023-03-06T07:48:44.863Z,21.45
2023-03-06T07:49:46.405Z,23.83
2023-03-06T07:50:58.990Z,26.80
2023-03-06T07:52:01.355Z,24.98
2023-03-06T07:53:02.809Z,22.92
2023-03-06T07:54:04.346Z,27.20
2023-03-06T07:55:06.392Z,24.05
2023-03-06T07:56:09.305Z,24.38
2023-03-06T07:58:12.162Z,21.88
2023-03-06T07:59:13.706Z,23.95
2023-03-06T08:00:16.482Z,24.67
2023-03-06T08:01:20.411Z,23.17
2023-03-06T08:02:21.903Z,21.08
2023-03-06T08:03:23.332Z,21.88
2023-03-06T08:04:24.790Z,23.85
2023-03-06T08:05:26.260Z,24.33
2023-03-06T08:06:27.989Z,25.13
2023-03-06T08:07:30.057Z,25.45
2023-03-06T08:08:31.476Z,25.60
2023-03-06T08:09:34.574Z,23.83
2023-03-06T08:12:38.913Z,24.27
2023-03-06T08:13:40.658Z,24.05
2023-03-06T08:14:42.135Z,22.15
2023-03-06T08:15:47.909Z,22.90
2023-03-06T08:16:51.187Z,24.88
2023-03-06T08:17:53.318Z,23.92
2023-03-06T08:18:55.731Z,24.80
2023-03-06T08:19:57.286Z,24.42
2023-03-06T08:21:05.128Z,23.40
2023-03-06T08:22:07.358Z,22.90
2023-03-06T08:23:08.800Z,24.85
2023-03-06T08:24:10.376Z,24.70
2023-03-06T08:25:13.465Z,24.17
2023-03-06T08:26:21.040Z,23.83
2023-03-06T08:27:22.936Z,23.98
2023-03-06T08:28:24.957Z,25.02
2023-03-06T08:29:27.452Z,21.75
2023-03-06T08:30:29.838Z,22.10
2023-03-06T08:31:31.247Z,22.73
2023-03-06T08:32:36.594Z,23.65
2023-03-06T08:33:39.238Z,23.92
2023-03-06T08:34:42.505Z,21.45
2023-03-06T08:35:44.105Z,26.05
2023-03-06T08:36:45.591Z,23.67
2023-03-06T08:37:47.039Z,22.98
2023-03-06T08:38:48.507Z,22.02
2023-03-06T08:39:49.944Z,21.20
2023-03-06T08:40:51.453Z,22.52
2023-03-06T08:41:53.034Z,22.95
2023-03-06T08:42:54.493Z,24.33
2023-03-06T08:43:56.494Z,23.95
2023-03-06T08:44:57.948Z,25.17
2023-03-06T08:46:00.282Z,20.02
2023-03-06T08:47:02.405Z,21.75
2023-03-06T08:48:03.892Z,22.45
2023-03-06T08:49:05.358Z,19.48
2023-03-06T08:50:07.129Z,20.42
2023-03-06T08:51:10.163Z,22.20
2023-03-06T08:53:13.351Z,23.27
2023-03-06T08:54:14.860Z,20.05
2023-03-06T08:55:16.376Z,20.98
2023-03-06T08:56:27.021Z,21.38
2023-03-06T08:57:28.570Z,21.38
2023-03-06T08:58:30.688Z,21.80
2023-03-06T08:59:32.108Z,21.55
2023-03-06T09:00:33.836Z,20.38
2023-03-06T09:01:36.796Z,21.63
2023-03-06T09:03:40.193Z,19.35
2023-03-06T09:04:41.654Z,22.27
2023-03-06T09:05:43.162Z,20.20
2023-03-06T09:06:45.692Z,20.35
2023-03-06T09:07:47.164Z,17.73
2023-03-06T09:08:51.271Z,17.83
2023-03-06T09:09:57.423Z,18.15
2023-03-06T09:10:58.991Z,21.65
2023-03-06T09:12:00.488Z,18.15
2023-03-06T09:13:02.445Z,16.63
2023-03-06T09:14:05.543Z,18.27
2023-03-06T09:15:08.071Z,17.73
2023-03-06T09:16:10.900Z,17.90
2023-03-06T09:17:12.469Z,19.38
2023-03-06T09:18:13.896Z,17.20
2023-03-06T09:19:15.343Z,16.27
2023-03-06T09:20:17.945Z,17.40
2023-03-06T09:21:21.860Z,19.40
2023-03-06T09:22:23.328Z,16.73
2023-03-06T09:23:24.854Z,19.85
2023-03-06T09:24:26.519Z,17.75
2023-03-06T09:25:27.953Z,17.63
2023-03-06T09:26:43.372Z,18.02
2023-03-06T09:28:01.769Z,17.52
2023-03-06T09:29:07.407Z,17.60
2023-03-06T09:30:11.200Z,17.48
2023-03-06T09:31:15.830Z,16.88
2023-03-06T09:32:17.397Z,20.45
2023-03-06T09:33:20.088Z,17.55
2023-03-06T09:34:21.692Z,16.88
2023-03-06T09:35:23.212Z,18.10
2023-03-06T09:36:24.798Z,17.75
2023-03-06T09:37:26.241Z,16.20
2023-03-06T09:38:28.115Z,17.65
2023-03-06T09:39:29.862Z,16.77
2023-03-06T09:40:55.878Z,18.10
2023-03-06T09:41:58.410Z,16.33
2023-03-06T09:43:00.894Z,18.90
2023-03-06T09:44:11.870Z,16.10
2023-03-06T09:45:14.335Z,17.90
2023-03-06T09:46:38.037Z,17.88
2023-03-06T09:48:00.658Z,18.70
2023-03-06T09:49:23.745Z,17.13
2023-03-06T09:50:51.600Z,21.92
2023-03-06T09:52:28.214Z,16.75
2023-03-06T09:53:38.608Z,20.83
2023-03-06T09:54:53.192Z,17.40
2023-03-06T09:56:03.539Z,16.60
2023-03-06T09:57:14.134Z,18.75
2023-03-06T09:58:25.733Z,19.55
2023-03-06T09:59:30.954Z,17.48
2023-03-06T10:00:59.703Z,17.73
2023-03-06T10:02:31.324Z,14.85
2023-03-06T10:03:45.232Z,20.15
2023-03-06T10:04:52.026Z,16.00
2023-03-06T10:06:02.774Z,16.92
2023-03-06T10:07:22.045Z,16.13
2023-03-06T10:08:31.083Z,18.50
2023-03-06T10:09:45.816Z,16.77
2023-03-06T10:10:59.047Z,20.05
2023-03-06T10:12:24.923Z,17.58
2023-03-06T10:13:32.479Z,17.05
2023-03-06T10:14:48.449Z,18.55
2023-03-06T10:15:54.849Z,17.83
2023-03-06T10:16:57.365Z,16.88
2023-03-06T10:17:59.029Z,15.95
2023-03-06T10:19:04.555Z,16.50
2023-03-06T10:20:19.543Z,19.73
2023-03-06T10:21:33.269Z,20.05
2023-03-06T10:23:31.991Z,18.08
2023-03-06T10:24:49.531Z,15.85
2023-03-06T10:26:02.602Z,18.48
2023-03-06T10:27:16.978Z,17.60
2023-03-06T10:28:24.559Z,15.00
2023-03-06T10:30:04.437Z,16.90
2023-03-06T10:32:46.295Z,18.80
2023-03-06T10:34:12.416Z,15.60
2023-03-06T10:35:19.279Z,14.70
2023-03-06T10:36:26.579Z,16.13
2023-03-06T10:37:32.573Z,15.60
2023-03-06T10:38:38.455Z,15.75
2023-03-06T10:39:40.059Z,15.32
2023-03-06T10:41:10.967Z,14.75
2023-03-06T10:42:12.634Z,16.80
2023-03-06T10:43:14.368Z,18.60
2023-03-06T10:44:15.970Z,15.27
2023-03-06T10:45:17.826Z,16.45
2023-03-06T10:46:28.926Z,17.70
2023-03-06T10:47:35.267Z,18.42
2023-03-06T10:48:40.900Z,15.75
2023-03-06T10:49:58.100Z,15.68
2023-03-06T10:51:18.626Z,14.10
2023-03-06T10:52:22.308Z,15.98
2023-03-06T10:53:26.784Z,15.23
2023-03-06T10:54:34.190Z,14.07
2023-03-06T10:55:37.898Z,13.70
2023-03-06T10:56:42.031Z,16.08
2023-03-06T10:57:43.552Z,16.27
2023-03-06T10:58:45.218Z,14.98
2023-03-06T11:00:23.601Z,15.93
2023-03-06T11:01:25.378Z,14.25
2023-03-06T11:02:31.446Z,14.02
2023-03-06T11:03:35.060Z,15.20
2023-03-06T11:04:46.337Z,15.82
2023-03-06T11:06:12.941Z,17.85
2023-03-06T11:07:36.258Z,12.30
2023-03-06T11:08:39.336Z,13.35
2023-03-06T11:10:00.602Z,12.70
2023-03-06T11:11:04.234Z,14.25
2023-03-06T11:12:26.668Z,14.80
2023-03-06T11:13:31.598Z,14.23
2023-03-06T11:14:33.290Z,11.82
2023-03-06T11:15:35.429Z,14.20
2023-03-06T11:16:39.314Z,13.15
2023-03-06T11:18:05.476Z,13.82
2023-03-06T11:19:20.523Z,14.43
2023-03-06T11:20:41.288Z,15.88
2023-03-06T11:22:16.842Z,13.00
2023-03-06T11:23:21.280Z,11.68
2023-03-06T11:24:22.995Z,11.82
2023-03-06T11:25:35.918Z,13.52
2023-03-06T11:26:47.498Z,12.55
2023-03-06T11:28:04.009Z,12.07
2023-03-06T11:29:14.689Z,12.40
2023-03-06T11:30:54.481Z,15.48
2023-03-06T11:32:19.384Z,10.90
2023-03-06T11:33:42.777Z,14.35
2023-03-06T11:34:50.565Z,11.95
2023-03-06T11:36:18.686Z,14.40
2023-03-06T11:37:23.787Z,14.18
2023-03-06T11:38:46.931Z,12.82
2023-03-06T11:40:06.768Z,11.75
2023-03-06T11:41:18.059Z,12.85
2023-03-06T11:42:28.654Z,13.93
2023-03-06T11:43:41.106Z,15.02
2023-03-06T11:45:14.821Z,15.48
2023-03-06T11:46:37.704Z,15.05
2023-03-06T11:47:49.686Z,15.98
2023-03-06T11:49:16.931Z,14.32
2023-03-06T11:50:25.570Z,17.13
2023-03-06T11:51:32.505Z,12.05
2023-03-06T11:52:44.367Z,15.30
2023-03-06T11:53:45.934Z,13.45
2023-03-06T11:54:53.279Z,12.77
2023-03-06T11:56:05.209Z,13.00
2023-03-06T11:57:18.341Z,12.68
2023-03-06T11:58:25.605Z,13.32
2023-03-06T11:59:45.861Z,14.30
2023-03-06T12:00:58.185Z,14.95
2023-03-06T12:02:22.269Z,14.32
2023-03-06T12:03:59.162Z,16.50
2023-03-06T12:05:25.978Z,13.95
2023-03-06T12:06:59.354Z,15.63
2023-03-06T12:08:25.816Z,13.90
2023-03-06T12:09:38.199Z,13.68
2023-03-06T12:10:52.117Z,14.85
2023-03-06T12:12:09.366Z,14.85
2023-03-06T12:14:45.456Z,14.30
2023-03-06T12:16:23.109Z,14.98
2023-03-06T12:17:33.698Z,14.77
2023-03-06T12:18:43.140Z,14.48
2023-03-06T12:20:00.035Z,15.30
2023-03-06T12:21:07.292Z,14.40
2023-03-06T12:22:31.295Z,13.30
2023-03-06T12:24:04.141Z,14.50
2023-03-06T12:25:17.800Z,13.65
2023-03-06T12:26:46.923Z,14.23
2023-03-06T12:27:57.683Z,14.10
2023-03-06T12:29:16.852Z,13.98
2023-03-06T12:30:46.203Z,13.45
2023-03-06T12:31:50.605Z,14.43
2023-03-06T12:33:13.779Z,13.50
2023-03-06T12:34:28.404Z,16.80
2023-03-06T12:35:57.894Z,14.45
2023-03-06T12:37:17.885Z,14.63
2023-03-06T12:38:31.684Z,15.10
2023-03-06T12:40:10.907Z,13.73
2023-03-06T12:41:37.999Z,13.85
2023-03-06T12:43:01.505Z,14.25
2023-03-06T12:44:34.177Z,14.75
2023-03-06T12:45:37.140Z,13.70
2023-03-06T12:47:52.823Z,14.85
2023-03-06T12:49:31.850Z,14.25
2023-03-06T12:51:40.717Z,14.10
2023-03-06T12:52:42.668Z,15.23
2023-03-06T12:53:45.396Z,15.07
2023-03-06T12:54:47.243Z,14.35
2023-03-06T12:55:50.841Z,16.05
2023-03-06T12:56:54.200Z,14.52
2023-03-06T12:57:56.793Z,15.88
2023-03-06T12:59:02.436Z,16.55
2023-03-06T13:00:04.527Z,14.60
2023-03-06T13:01:36.872Z,15.23
2023-03-06T13:03:04.261Z,13.45
2023-03-06T13:04:29.301Z,14.55
2023-03-06T13:05:48.982Z,14.57
2023-03-06T13:07:15.513Z,14.10
2023-03-06T13:08:24.668Z,14.13
2023-03-06T13:09:40.724Z,16.00
2023-03-06T13:10:43.801Z,15.30
2023-03-06T13:13:05.341Z,14.55
2023-03-06T13:14:54.217Z,14.30
2023-03-06T13:16:18.189Z,13.88
2023-03-06T13:17:37.757Z,14.25
2023-03-06T13:18:42.218Z,13.55
2023-03-06T13:19:43.843Z,14.10
2023-03-06T13:20:46.089Z,15.82
2023-03-06T13:21:56.276Z,13.27
2023-03-06T13:22:58.543Z,15.82
2023-03-06T13:24:23.796Z,13.45
2023-03-06T13:25:32.647Z,13.77
2023-03-06T13:26:34.103Z,14.73
2023-03-06T13:28:04.885Z,13.60
2023-03-06T13:29:38.259Z,14.60
2023-03-06T13:30:39.899Z,16.95
2023-03-06T13:31:41.436Z,12.82
2023-03-06T13:32:43.273Z,12.95
2023-03-06T13:33:44.707Z,13.00
2023-03-06T13:34:48.573Z,11.93
2023-03-06T13:35:55.728Z,11.77
2023-03-06T13:37:27.687Z,12.32
2023-03-06T13:38:37.901Z,13.13
2023-03-06T13:40:01.438Z,13.48
2023-03-06T13:41:27.553Z,11.98
2023-03-06T13:42:45.080Z,14.77
2023-03-06T13:43:47.998Z,14.27
2023-03-06T13:44:51.622Z,14.43
2023-03-06T13:45:54.378Z,12.23
2023-03-06T13:47:08.142Z,13.73
2023-03-06T13:48:46.247Z,12.25
2023-03-06T13:49:48.660Z,12.02
2023-03-06T13:50:51.414Z,12.30
2023-03-06T13:51:52.822Z,11.57
2023-03-06T13:53:15.697Z,16.20
2023-03-06T13:55:00.587Z,13.63
2023-03-06T13:56:12.526Z,11.93
2023-03-06T13:57:35.347Z,13.35
2023-03-06T13:58:55.303Z,11.15
2023-03-06T14:00:21.813Z,12.15
2023-03-06T14:01:47.133Z,11.65
2023-03-06T14:03:34.094Z,12.45
2023-03-06T14:05:10.156Z,11.68
2023-03-06T14:06:36.163Z,10.80
2023-03-06T14:07:49.232Z,13.77
2023-03-06T14:08:51.317Z,12.25
2023-03-06T14:09:57.864Z,12.65
2023-03-06T14:11:19.813Z,12.13
2023-03-06T14:12:26.466Z,11.20
2023-03-06T14:13:45.315Z,14.65
2023-03-06T14:14:52.740Z,14.52
2023-03-06T14:15:55.847Z,11.57
2023-03-06T14:16:58.724Z,11.73
2023-03-06T14:18:14.251Z,11.57
2023-03-06T14:19:18.880Z,11.98
2023-03-06T14:20:21.797Z,12.05
2023-03-06T14:21:45.378Z,12.00
2023-03-06T14:22:47.249Z,12.80
2023-03-06T14:24:00.306Z,12.32
2023-03-06T14:25:38.065Z,13.70
2023-03-06T14:26:43.452Z,15.43
2023-03-06T14:27:49.529Z,12.30
2023-03-06T14:28:59.644Z,12.65